King City, Missouri
Current Conditions -  °F | °C
As of 8:22 AM on Friday 24 Oct 2014 (Local Time) from KSTJ Reporting Station
Haze Haze  
Wind Chill: 57°   Ceiling: 200
Heat Index: 57°   Visibility: 1mi
Dew Point: 57°   Wind: 7mph
Humidity: 100%   Direction: 200°SSW
Pressure: 30.03"   Gusts: NA
Location:  40.05°N, 94.52°W
Report Text: KSTJ 241322Z 20006KT 1SM R35/6000VP6000FT BR OVC002 14/14 A3003 RMK AO2 T01390139
Loading
Personal Weather Stations






























Interactive Weather Map
Tropical Storm Tracking
New forecast layout! Learn more

10-Day Weather Forecast

Advertisements
Track Severe Weather on mobile